createdAt,value
2019-05-06T00:01:04.777Z,5.02
2019-05-06T00:03:34.346Z,5.08
2019-05-06T00:06:03.970Z,5.10
2019-05-06T00:08:34.467Z,5.13
2019-05-06T00:11:04.882Z,5.12
2019-05-06T00:13:34.329Z,5.15
2019-05-06T00:16:03.915Z,5.14
2019-05-06T00:18:34.200Z,5.21
2019-05-06T00:21:04.634Z,5.25
2019-05-06T00:23:54.363Z,5.25
2019-05-06T00:26:41.404Z,5.18
2019-05-06T00:31:58.690Z,5.04
2019-05-06T00:34:26.951Z,4.97
2019-05-06T00:36:55.224Z,5.03
2019-05-06T00:39:44.425Z,5.01
2019-05-06T00:42:34.410Z,4.93
2019-05-06T00:45:01.720Z,4.92
2019-05-06T00:47:29.968Z,4.84
2019-05-06T00:49:58.242Z,4.85
2019-05-06T00:52:26.519Z,4.83
2019-05-06T00:54:54.931Z,4.81
2019-05-06T01:00:53.790Z,4.85
2019-05-06T01:03:23.875Z,4.83
2019-05-06T01:05:54.161Z,4.81
2019-05-06T01:08:24.039Z,4.78
2019-05-06T01:10:54.428Z,4.72
2019-05-06T01:18:50.279Z,4.66
2019-05-06T01:21:18.551Z,4.64
2019-05-06T01:23:46.834Z,4.62
2019-05-06T01:26:55.137Z,4.62
2019-05-06T01:29:24.046Z,4.60
2019-05-06T01:31:54.409Z,4.69
2019-05-06T01:34:24.538Z,4.77
2019-05-06T01:36:54.524Z,4.79
2019-05-06T01:39:43.610Z,4.86
2019-05-06T01:44:50.874Z,5.04
2019-05-06T01:47:19.149Z,5.02
2019-05-06T01:49:47.413Z,5.06
2019-05-06T01:52:15.676Z,5.04
2019-05-06T01:54:43.944Z,4.89
2019-05-06T01:57:13.695Z,4.83
2019-05-06T01:59:44.182Z,4.83
2019-05-06T02:02:14.166Z,4.77
2019-05-06T02:04:44.227Z,4.76
2019-05-06T02:07:14.308Z,4.76
2019-05-06T02:09:42.158Z,4.65
2019-05-06T02:12:10.411Z,4.61
2019-05-06T02:14:38.685Z,4.55
2019-05-06T02:17:06.951Z,4.51
2019-05-06T02:22:34.605Z,4.42
2019-05-06T02:28:11.362Z,4.31
2019-05-06T02:30:58.745Z,4.27
2019-05-06T02:33:46.112Z,4.14
2019-05-06T02:38:55.805Z,4.07
2019-05-06T02:41:23.387Z,4.06
2019-05-06T02:43:54.225Z,4.12
2019-05-06T02:46:23.756Z,4.05
2019-05-06T02:49:13.264Z,4.11
2019-05-06T02:51:40.690Z,4.21
2019-05-06T02:54:08.975Z,4.22
2019-05-06T02:56:37.286Z,4.16
2019-05-06T02:59:05.509Z,4.13
2019-05-06T03:01:34.207Z,4.08
2019-05-06T03:04:04.636Z,4.14
2019-05-06T03:06:34.039Z,4.12
2019-05-06T03:09:03.250Z,4.15
2019-05-06T03:11:33.160Z,4.15
2019-05-06T03:14:03.217Z,4.04
2019-05-06T03:16:33.326Z,4.07
2019-05-06T03:19:04.090Z,4.01
2019-05-06T03:21:54.086Z,4.03
2019-05-06T03:24:43.410Z,3.98
2019-05-06T03:27:10.586Z,4.00
2019-05-06T03:29:38.831Z,3.87
2019-05-06T03:32:07.962Z,3.88
2019-05-06T03:34:58.550Z,3.89
2019-05-06T03:39:54.404Z,3.90
2019-05-06T03:42:23.273Z,3.96
2019-05-06T03:47:54.074Z,3.91
2019-05-06T03:50:56.036Z,3.91
2019-05-06T03:53:24.042Z,3.90
2019-05-06T03:55:53.923Z,3.85
2019-05-06T03:58:23.614Z,3.80
2019-05-06T04:00:53.096Z,3.80
2019-05-06T04:03:28.324Z,3.76
2019-05-06T04:06:04.624Z,3.75
2019-05-06T04:09:07.076Z,3.76
2019-05-06T04:12:08.563Z,3.76
2019-05-06T04:14:36.855Z,3.78
2019-05-06T04:20:34.471Z,3.82
2019-05-06T04:23:23.372Z,3.88
2019-05-06T04:26:13.371Z,3.86
2019-05-06T04:28:43.467Z,3.86
2019-05-06T04:31:13.248Z,4.14
2019-05-06T04:33:41.040Z,4.07
2019-05-06T04:36:09.315Z,4.11
2019-05-06T04:39:13.123Z,4.16
2019-05-06T04:41:43.330Z,4.15
2019-05-06T04:44:13.898Z,4.16
2019-05-06T04:46:44.032Z,4.22
2019-05-06T04:49:14.885Z,4.31
2019-05-06T04:52:14.551Z,4.35
2019-05-06T04:54:44.114Z,4.40
2019-05-06T04:57:13.040Z,4.58
2019-05-06T04:59:43.230Z,4.66
2019-05-06T05:02:13.259Z,4.62
2019-05-06T05:04:43.248Z,4.56
2019-05-06T05:07:12.785Z,4.56
2019-05-06T05:09:42.965Z,4.59
2019-05-06T05:12:52.567Z,4.61
2019-05-06T05:15:41.779Z,4.76
2019-05-06T05:18:31.880Z,5.03
2019-05-06T05:21:33.911Z,5.24
2019-05-06T05:24:02.280Z,5.42
2019-05-06T05:27:12.403Z,5.65
2019-05-06T05:29:42.372Z,5.76
2019-05-06T05:32:12.606Z,5.92
2019-05-06T05:34:41.022Z,6.09
2019-05-06T05:37:44.756Z,6.24
2019-05-06T05:40:47.260Z,6.44
2019-05-06T05:43:34.721Z,6.43
2019-05-06T05:46:36.254Z,6.66
2019-05-06T05:49:24.638Z,6.64
2019-05-06T05:51:53.259Z,6.84
2019-05-06T05:54:23.170Z,6.99
2019-05-06T05:56:52.909Z,7.05
2019-05-06T05:59:23.147Z,6.80
2019-05-06T06:01:52.885Z,6.98
2019-05-06T06:04:57.619Z,7.14
2019-05-06T06:07:25.203Z,7.04
2019-05-06T06:12:32.511Z,6.90
2019-05-06T06:18:09.025Z,6.84
2019-05-06T06:20:56.424Z,6.78
2019-05-06T06:26:04.023Z,6.73
2019-05-06T06:28:33.669Z,6.69
2019-05-06T06:31:23.023Z,6.86
2019-05-06T06:39:28.171Z,7.25
2019-05-06T06:41:56.440Z,7.25
2019-05-06T06:47:13.650Z,7.95
2019-05-06T06:49:42.517Z,7.68
2019-05-06T06:52:14.767Z,7.55
2019-05-06T06:54:43.783Z,7.42
2019-05-06T06:57:33.904Z,7.40
2019-05-06T07:00:34.573Z,7.31
2019-05-06T07:03:22.235Z,7.15
2019-05-06T07:06:30.558Z,7.18
2019-05-06T07:08:58.805Z,7.14
2019-05-06T07:11:27.054Z,7.11
2019-05-06T07:14:36.174Z,7.16
2019-05-06T07:17:05.339Z,7.17
2019-05-06T07:25:03.697Z,7.79
2019-05-06T07:27:32.403Z,7.97
2019-05-06T07:30:02.984Z,8.17
2019-05-06T07:32:32.601Z,8.53
2019-05-06T07:35:02.238Z,8.57
2019-05-06T07:37:32.738Z,8.63
2019-05-06T07:40:03.063Z,8.55
2019-05-06T07:45:29.693Z,8.52
2019-05-06T07:50:49.221Z,8.85
2019-05-06T07:53:16.978Z,8.86
2019-05-06T07:55:45.290Z,8.96
2019-05-06T07:58:13.982Z,9.00
2019-05-06T08:00:43.703Z,8.87
2019-05-06T08:03:14.048Z,8.92
2019-05-06T08:05:54.807Z,8.59
2019-05-06T08:08:12.950Z,8.49
2019-05-06T08:10:42.773Z,8.69
2019-05-06T08:13:13.018Z,8.67
2019-05-06T08:15:42.072Z,8.51
2019-05-06T08:18:45.229Z,8.25
2019-05-06T08:26:32.329Z,8.07
2019-05-06T08:29:02.809Z,8.05
2019-05-06T08:31:32.740Z,7.73
2019-05-06T08:34:02.702Z,7.51
2019-05-06T08:39:12.938Z,7.56
2019-05-06T08:41:42.363Z,7.56
2019-05-06T08:44:12.608Z,7.74
2019-05-06T08:46:42.809Z,8.03
2019-05-06T08:49:12.311Z,8.19
2019-05-06T08:54:48.754Z,8.41
2019-05-06T08:57:17.074Z,8.75
2019-05-06T08:59:45.361Z,8.79
2019-05-06T09:02:13.910Z,8.93
2019-05-06T09:04:43.643Z,8.99
2019-05-06T09:07:12.110Z,9.35
2019-05-06T09:09:42.129Z,9.30
2019-05-06T09:12:10.373Z,9.34
2019-05-06T09:14:38.659Z,9.40
2019-05-06T09:19:49.394Z,9.61
2019-05-06T09:22:17.751Z,9.63
2019-05-06T09:24:46.062Z,9.73
2019-05-06T09:38:02.687Z,10.56
2019-05-06T09:40:31.916Z,10.56
2019-05-06T09:43:04.734Z,10.12
2019-05-06T09:45:33.042Z,10.04
2019-05-06T09:48:22.304Z,9.46
2019-05-06T09:57:37.696Z,7.49
2019-05-06T10:00:39.762Z,7.56
2019-05-06T10:03:08.030Z,7.97
2019-05-06T10:12:12.751Z,8.00
2019-05-06T10:14:43.366Z,8.05
2019-05-06T10:17:13.166Z,7.52
2019-05-06T10:19:42.964Z,7.21
2019-05-06T10:25:19.627Z,7.33
2019-05-06T10:30:56.783Z,7.81
2019-05-06T10:34:03.078Z,8.03
2019-05-06T10:40:16.531Z,8.39
2019-05-06T10:55:42.726Z,9.34
2019-05-06T10:58:12.838Z,9.40
2019-05-06T11:06:56.857Z,10.34
2019-05-06T11:12:33.642Z,9.81
2019-05-06T11:15:03.552Z,9.63
2019-05-06T11:17:32.624Z,9.00
2019-05-06T11:20:43.845Z,8.48
2019-05-06T11:23:14.163Z,8.36
2019-05-06T11:32:44.850Z,8.71
2019-05-06T11:35:53.224Z,9.00
2019-05-06T11:38:56.839Z,8.93
2019-05-06T11:42:24.995Z,9.25
2019-05-06T11:44:57.188Z,8.85
2019-05-06T11:47:44.681Z,8.88
2019-05-06T11:50:47.276Z,8.80
2019-05-06T11:56:06.593Z,9.72
2019-05-06T11:59:08.643Z,10.19
2019-05-06T12:01:53.827Z,10.07
2019-05-06T12:04:22.978Z,9.63
2019-05-06T12:09:54.362Z,9.77
2019-05-06T12:12:23.746Z,9.69
2019-05-06T12:18:23.234Z,9.58
2019-05-06T12:23:44.815Z,9.53
2019-05-06T12:26:14.046Z,9.57
2019-05-06T12:31:42.144Z,10.18
2019-05-06T12:40:17.115Z,10.09
2019-05-06T12:45:44.386Z,10.25
2019-05-06T12:53:52.722Z,10.87
2019-05-06T12:56:42.062Z,10.82
2019-05-06T13:08:21.225Z,10.04
2019-05-06T13:11:24.506Z,10.26
2019-05-06T13:14:00.206Z,10.63
2019-05-06T13:16:43.150Z,10.35
2019-05-06T13:21:59.464Z,10.05
2019-05-06T13:24:27.839Z,10.11
2019-05-06T13:30:37.925Z,10.43
2019-05-06T13:33:26.616Z,10.48
2019-05-06T13:35:55.045Z,10.62
2019-05-06T13:38:23.390Z,10.38
2019-05-06T13:40:56.622Z,10.29
2019-05-06T13:49:32.494Z,10.01
2019-05-06T13:52:42.505Z,10.06
2019-05-06T13:55:12.846Z,10.15
2019-05-06T13:57:57.758Z,10.22
2019-05-06T14:00:26.051Z,10.25
2019-05-06T14:05:33.341Z,10.32
2019-05-06T14:08:04.670Z,10.36
2019-05-06T14:10:32.787Z,10.24
2019-05-06T14:13:02.521Z,10.19
2019-05-06T14:15:32.503Z,10.04
2019-05-06T14:18:02.711Z,10.24
2019-05-06T14:20:33.538Z,10.07
2019-05-06T14:23:02.380Z,10.10
2019-05-06T14:25:52.842Z,9.65
2019-05-06T14:34:03.575Z,9.72
2019-05-06T14:36:32.744Z,9.59
2019-05-06T14:42:10.212Z,9.56
2019-05-06T14:44:38.609Z,9.73
2019-05-06T14:47:26.120Z,9.58
2019-05-06T14:49:56.728Z,9.52
2019-05-06T14:52:24.890Z,9.59
2019-05-06T14:57:55.079Z,9.62
2019-05-06T15:00:23.373Z,9.50
2019-05-06T15:02:53.303Z,9.46
2019-05-06T15:08:00.709Z,9.62
2019-05-06T15:11:03.294Z,9.95
2019-05-06T15:13:32.323Z,9.99
2019-05-06T15:16:03.483Z,9.97
2019-05-06T15:21:33.830Z,9.82
2019-05-06T15:23:43.118Z,9.98
2019-05-06T15:26:12.289Z,9.85
2019-05-06T15:28:42.594Z,9.74
2019-05-06T15:31:30.602Z,9.68
2019-05-06T15:36:56.966Z,9.67
2019-05-06T15:39:25.226Z,9.67
2019-05-06T15:41:53.521Z,9.42
2019-05-06T15:44:23.313Z,9.62
2019-05-06T15:46:52.698Z,9.65
2019-05-06T15:49:22.420Z,9.51
2019-05-06T15:54:32.251Z,9.12
2019-05-06T15:57:00.872Z,9.24
2019-05-06T16:00:09.195Z,8.86
2019-05-06T16:02:37.770Z,9.17
2019-05-06T16:05:13.941Z,9.16
2019-05-06T16:07:37.364Z,9.14
2019-05-06T16:13:13.785Z,9.20
2019-05-06T16:15:42.455Z,9.02
2019-05-06T16:18:12.776Z,8.84
2019-05-06T16:20:40.730Z,8.74
2019-05-06T16:23:28.121Z,8.74
2019-05-06T16:25:56.409Z,8.74
2019-05-06T16:28:24.690Z,8.81
2019-05-06T16:30:53.620Z,8.83
2019-05-06T16:35:52.373Z,8.85
2019-05-06T16:38:23.004Z,8.77
2019-05-06T16:41:02.150Z,8.62
2019-05-06T16:43:22.286Z,8.58
2019-05-06T16:45:52.949Z,8.58
2019-05-06T16:48:22.570Z,8.42
2019-05-06T16:50:50.749Z,8.53
2019-05-06T16:53:19.064Z,8.45
2019-05-06T16:56:06.497Z,8.51
2019-05-06T17:01:23.798Z,8.53
2019-05-06T17:04:14.333Z,8.52
2019-05-06T17:07:00.307Z,8.39
2019-05-06T17:09:28.578Z,8.35
2019-05-06T17:11:57.117Z,8.29
2019-05-06T17:14:25.386Z,8.35
2019-05-06T17:16:53.702Z,8.34
2019-05-06T17:19:23.050Z,8.31
2019-05-06T17:21:52.484Z,8.26
2019-05-06T17:24:22.119Z,8.36
2019-05-06T17:26:53.960Z,8.43
2019-05-06T17:37:41.943Z,8.42
2019-05-06T17:40:52.341Z,8.41
2019-05-06T17:43:40.173Z,8.43
2019-05-06T17:46:06.609Z,8.34
2019-05-06T17:48:53.001Z,8.19
2019-05-06T17:51:42.425Z,8.06
2019-05-06T17:54:12.349Z,8.19
2019-05-06T17:56:41.906Z,8.10
2019-05-06T17:59:10.436Z,8.04
2019-05-06T18:01:57.809Z,8.08
2019-05-06T18:04:26.077Z,8.08
2019-05-06T18:06:54.354Z,8.03
2019-05-06T18:09:22.625Z,8.05
2019-05-06T18:11:58.501Z,8.05
2019-05-06T18:14:22.996Z,8.04
2019-05-06T18:16:50.865Z,8.09
2019-05-06T18:19:19.136Z,8.14
2019-05-06T18:21:47.404Z,8.11
2019-05-06T18:24:15.678Z,7.99
2019-05-06T18:26:43.958Z,8.09
2019-05-06T18:29:12.683Z,8.04
2019-05-06T18:31:42.879Z,8.04
2019-05-06T18:34:12.906Z,7.96
2019-05-06T18:36:42.965Z,7.86
2019-05-06T18:39:12.690Z,7.98
2019-05-06T18:41:42.336Z,7.78
2019-05-06T18:44:12.028Z,7.82
2019-05-06T18:46:42.074Z,7.93
2019-05-06T18:49:12.857Z,7.83
2019-05-06T18:51:42.501Z,7.78
2019-05-06T18:54:12.418Z,7.74
2019-05-06T18:56:42.779Z,7.73
2019-05-06T18:59:12.169Z,7.57
2019-05-06T19:01:43.160Z,7.65
2019-05-06T19:07:10.476Z,7.51
2019-05-06T19:09:48.798Z,7.52
2019-05-06T19:12:28.999Z,7.39
2019-05-06T19:14:47.189Z,7.32
2019-05-06T19:17:15.461Z,7.20
2019-05-06T19:19:43.715Z,7.20
2019-05-06T19:22:13.931Z,7.15
2019-05-06T19:24:42.674Z,7.10
2019-05-06T19:27:12.741Z,6.99
2019-05-06T19:29:43.296Z,6.91
2019-05-06T19:32:12.296Z,6.98
2019-05-06T19:34:42.396Z,7.02
2019-05-06T19:37:11.966Z,6.75
2019-05-06T19:39:40.231Z,6.78
2019-05-06T19:42:08.503Z,6.77
2019-05-06T19:44:36.790Z,6.79
2019-05-06T19:47:05.043Z,6.68
2019-05-06T19:49:33.326Z,6.71
2019-05-06T19:52:03.227Z,6.69
2019-05-06T19:54:33.066Z,6.72
2019-05-06T19:57:02.458Z,6.64
2019-05-06T19:59:33.102Z,6.58
2019-05-06T20:02:01.580Z,6.62
2019-05-06T20:10:16.863Z,6.58
2019-05-06T20:15:53.204Z,6.51
2019-05-06T20:18:21.478Z,6.61
2019-05-06T20:20:49.762Z,6.60
2019-05-06T20:23:18.019Z,6.57
2019-05-06T20:25:46.290Z,6.61
2019-05-06T20:28:14.568Z,6.57
2019-05-06T20:30:42.818Z,6.51
2019-05-06T20:33:12.458Z,6.55
2019-05-06T20:35:43.162Z,6.48
2019-05-06T20:38:12.315Z,6.20
2019-05-06T20:41:15.280Z,6.31
2019-05-06T20:43:43.963Z,6.32
2019-05-06T20:46:12.530Z,6.23
2019-05-06T20:48:42.279Z,6.16
2019-05-06T20:51:12.320Z,6.13
2019-05-06T20:53:42.998Z,6.04
2019-05-06T20:56:12.405Z,6.01
2019-05-06T20:58:42.054Z,6.02
2019-05-06T21:01:10.607Z,6.02
2019-05-06T21:03:38.991Z,6.08
2019-05-06T21:06:07.253Z,6.01
2019-05-06T21:08:35.510Z,5.96
2019-05-06T21:11:04.169Z,5.88
2019-05-06T21:13:35.583Z,5.91
2019-05-06T21:16:03.738Z,5.84
2019-05-06T21:18:32.560Z,5.60
2019-05-06T21:21:02.224Z,5.58
2019-05-06T21:23:32.108Z,5.61
2019-05-06T21:26:00.470Z,5.48
2019-05-06T21:28:28.707Z,5.49
2019-05-06T21:30:56.961Z,5.60
2019-05-06T21:33:25.223Z,5.61
2019-05-06T21:35:53.498Z,5.57
2019-05-06T21:38:22.742Z,5.47
2019-05-06T21:40:52.488Z,5.33
2019-05-06T21:43:22.656Z,5.25
2019-05-06T21:45:53.972Z,5.29
2019-05-06T21:48:22.251Z,5.15
2019-05-06T21:50:52.329Z,5.13
2019-05-06T21:53:23.071Z,5.11
2019-05-06T21:55:52.472Z,5.14
2019-05-06T21:58:23.149Z,5.20
2019-05-06T22:01:10.989Z,5.14
2019-05-06T22:03:39.509Z,4.98
2019-05-06T22:06:07.772Z,4.96
2019-05-06T22:08:36.018Z,4.94
2019-05-06T22:11:04.288Z,4.95
2019-05-06T22:13:33.439Z,4.91
2019-05-06T22:16:04.771Z,4.85
2019-05-06T22:18:32.773Z,4.79
2019-05-06T22:21:22.329Z,4.76
2019-05-06T22:24:09.247Z,4.67
2019-05-06T22:26:37.535Z,4.61
2019-05-06T22:29:05.789Z,4.56
2019-05-06T22:31:34.041Z,4.53
2019-05-06T22:34:02.316Z,4.45
2019-05-06T22:36:32.328Z,4.41
2019-05-06T22:39:02.450Z,4.40
2019-05-06T22:41:32.516Z,4.39
2019-05-06T22:44:14.331Z,4.37
2019-05-06T22:46:43.161Z,4.37
2019-05-06T22:49:13.320Z,4.39
2019-05-06T22:51:42.553Z,4.34
2019-05-06T22:54:11.400Z,4.38
2019-05-06T22:56:39.648Z,4.34
2019-05-06T22:59:07.915Z,4.30
2019-05-06T23:01:55.290Z,4.25
2019-05-06T23:07:04.453Z,4.25
2019-05-06T23:09:32.681Z,4.23
2019-05-06T23:12:02.460Z,4.25
2019-05-06T23:14:34.685Z,4.23
2019-05-06T23:17:02.909Z,4.16
2019-05-06T23:19:31.814Z,4.12
2019-05-06T23:22:03.977Z,4.11
2019-05-06T23:24:32.133Z,4.09
2019-05-06T23:27:02.357Z,4.10
2019-05-06T23:29:52.541Z,4.11
2019-05-06T23:32:20.283Z,4.06
2019-05-06T23:34:48.561Z,4.05
2019-05-06T23:37:56.860Z,3.95
2019-05-06T23:41:03.826Z,3.96
2019-05-06T23:44:12.444Z,3.90
2019-05-06T23:47:19.488Z,3.96
2019-05-06T23:50:26.471Z,3.87
2019-05-06T23:53:33.462Z,3.81
2019-05-06T23:59:22.591Z,3.81
